Time;durP1;ratioP1;P1;durP2;ratioP2;P2;SDS_P1;SDS_P2;PMS_P1;PMS_P2;Temp;Humidity;BMP_temperature;BMP_pressure;BME280_temperature;BME280_humidity;BME280_pressure;Samples;Min_cycle;Max_cycle;Signal;HPM_P1;HPM_P2
2022/08/24 00:00:18;;;;;;;10.15;5.40;;;;;;;22.46;47.59;100046.75;4969283;28;20121;-83
2022/08/24 00:02:45;;;;;;;8.00;5.75;;;;;;;22.52;46.28;100041.34;5001684;28;20056;-83
2022/08/24 00:05:13;;;;;;;7.53;5.40;;;;;;;22.52;45.49;100037.81;4997547;28;20050;-83
2022/08/24 00:07:40;;;;;;;8.23;5.57;;;;;;;22.49;45.57;100028.25;4999480;28;20050;-83
2022/08/24 00:10:08;;;;;;;8.95;5.63;;;;;;;22.43;46.30;100034.47;4982562;28;20137;-83
2022/08/24 00:12:35;;;;;;;7.47;5.68;;;;;;;22.57;45.68;100051.56;4998713;28;20050;-83
2022/08/24 00:15:04;;;;;;;6.80;5.85;;;;;;;22.50;45.98;100046.13;4946283;28;20924;-83
2022/08/24 00:17:32;;;;;;;11.05;5.68;;;;;;;22.55;45.95;100040.09;4984093;28;20041;-82
2022/08/24 00:19:59;;;;;;;9.25;5.95;;;;;;;22.56;45.84;100047.16;4982158;28;20497;-83
2022/08/24 00:22:26;;;;;;;11.25;6.13;;;;;;;22.51;45.88;100030.72;4968877;28;20061;-82
2022/08/24 00:24:53;;;;;;;7.45;5.22;;;;;;;22.50;46.14;100038.03;4967685;28;20042;-83
2022/08/24 00:27:26;;;;;;;6.25;5.38;;;;;;;22.29;46.78;100035.53;4998611;28;20069;-82
2022/08/24 00:29:54;;;;;;;6.70;5.20;;;;;;;22.40;46.81;100039.50;4983007;28;20045;-82
2022/08/24 00:32:21;;;;;;;6.57;4.93;;;;;;;22.36;46.61;100035.53;5013038;28;20056;-83
2022/08/24 00:34:48;;;;;;;10.02;5.28;;;;;;;22.37;46.24;100037.22;4968248;28;20054;-83
2022/08/24 00:37:27;;;;;;;7.82;5.25;;;;;;;22.35;46.44;100041.97;4966827;28;20393;-82
2022/08/24 00:39:55;;;;;;;17.58;6.20;;;;;;;22.30;46.33;100040.72;4981251;28;20051;-82
2022/08/24 00:42:23;;;;;;;8.40;5.55;;;;;;;22.26;46.79;100044.03;4997489;28;20438;-82
2022/08/24 00:44:50;;;;;;;7.63;5.60;;;;;;;22.23;46.59;100042.59;4952508;28;20076;-83
2022/08/24 00:47:21;;;;;;;9.65;5.13;;;;;;;22.19;47.40;100043.19;4953129;28;20047;-82
2022/08/24 00:50:00;;;;;;;8.35;5.03;;;;;;;21.97;47.40;100042.53;4989025;28;20053;-82
2022/08/24 00:52:56;;;;;;;8.38;5.32;;;;;;;21.79;47.59;100046.66;4959944;28;20043;-82
2022/08/24 00:55:34;;;;;;;7.38;6.00;;;;;;;21.90;47.66;100042.50;4910409;28;20043;-82
2022/08/24 00:58:06;;;;;;;8.63;5.28;;;;;;;22.08;47.07;100040.06;4992135;28;20525;-82
2022/08/24 01:00:41;;;;;;;8.20;5.03;;;;;;;22.04;46.83;100040.69;4983675;28;20051;-82
2022/08/24 01:03:14;;;;;;;6.15;5.05;;;;;;;22.07;46.52;100042.97;4977914;28;20182;-82
2022/08/24 01:05:41;;;;;;;7.63;5.05;;;;;;;22.06;46.73;100049.41;4978414;28;20043;-84
2022/08/24 01:08:10;;;;;;;10.18;4.72;;;;;;;22.09;46.61;100041.72;4965583;28;20134;-83
2022/08/24 01:10:49;;;;;;;8.52;5.63;;;;;;;21.85;46.59;100042.28;4971501;28;20048;-82
2022/08/24 01:13:16;;;;;;;7.38;4.68;;;;;;;22.01;46.82;100047.31;4963693;28;20130;-83
2022/08/24 01:15:45;;;;;;;9.20;5.00;;;;;;;22.01;46.30;100043.78;4979630;28;20133;-83
2022/08/24 01:21:07;;;;;;;8.93;5.13;;;;;;;21.80;47.50;100045.59;5006748;28;20105;-83
2022/08/24 01:23:37;;;;;;;7.03;4.60;;;;;;;21.95;46.77;100044.59;4979552;28;20443;-83
2022/08/24 01:26:05;;;;;;;7.00;4.65;;;;;;;21.89;46.90;100049.78;4966021;28;20043;-83
2022/08/24 01:28:35;;;;;;;7.30;4.78;;;;;;;21.87;46.94;100045.63;4963997;28;20121;-83
2022/08/24 01:31:02;;;;;;;6.15;4.72;;;;;;;21.81;46.84;100047.28;4997708;28;20588;-82
2022/08/24 01:33:31;;;;;;;8.45;4.47;;;;;;;21.85;46.78;100045.00;4966668;28;20120;-83
2022/08/24 01:36:15;;;;;;;7.28;4.93;;;;;;;21.71;46.73;100054.94;4979815;28;20046;-83
2022/08/24 01:38:44;;;;;;;9.25;4.22;;;;;;;21.78;46.65;100055.81;4980407;28;20559;-82
2022/08/24 01:41:11;;;;;;;5.63;4.35;;;;;;;21.77;47.05;100053.28;4961163;28;20118;-83
2022/08/24 01:43:38;;;;;;;8.18;4.95;;;;;;;21.82;46.42;100048.94;4981103;28;20054;-83
2022/08/24 01:46:07;;;;;;;6.97;4.60;;;;;;;21.77;46.26;100047.88;4980956;28;20082;-84
2022/08/24 01:48:34;;;;;;;7.43;4.50;;;;;;;21.79;46.37;100059.34;4968191;28;20137;-83
2022/08/24 01:51:01;;;;;;;10.82;4.68;;;;;;;21.81;46.29;100057.25;4965466;28;20138;-83
2022/08/24 01:53:29;;;;;;;8.80;4.65;;;;;;;21.78;46.14;100052.25;4983818;28;20057;-84
2022/08/24 01:55:56;;;;;;;6.15;3.92;;;;;;;21.75;46.17;100048.06;4985325;28;20050;-84
2022/08/24 01:58:23;;;;;;;11.00;4.35;;;;;;;21.68;46.59;100048.06;4976035;28;20490;-82
2022/08/24 02:00:50;;;;;;;7.90;4.15;;;;;;;21.71;46.62;100052.25;4998753;28;20125;-83
2022/08/24 02:03:17;;;;;;;5.57;3.50;;;;;;;21.72;46.20;100056.59;4971310;28;20046;-82
2022/08/24 02:05:50;;;;;;;5.50;3.70;;;;;;;21.65;46.44;100055.72;4954045;28;20046;-83
2022/08/24 02:08:18;;;;;;;7.95;3.72;;;;;;;21.72;46.27;100055.78;4968386;28;20050;-83
2022/08/24 02:10:45;;;;;;;6.50;4.30;;;;;;;21.73;46.08;100060.97;4986329;28;20556;-83
2022/08/24 02:13:22;;;;;;;6.80;3.92;;;;;;;21.70;45.93;100057.84;5008783;28;20042;-83
2022/08/24 02:15:51;;;;;;;11.05;3.75;;;;;;;21.65;45.72;100053.03;4984951;28;20153;-82
2022/08/24 02:18:18;;;;;;;4.70;3.67;;;;;;;21.75;45.65;100061.59;4967104;28;20129;-82
2022/08/24 02:20:45;;;;;;;6.55;3.47;;;;;;;21.66;45.66;100062.81;4953945;28;20046;-83
2022/08/24 02:23:12;;;;;;;10.93;4.20;;;;;;;21.64;46.26;100064.88;4969516;28;20078;-82
2022/08/24 02:25:40;;;;;;;10.80;3.75;;;;;;;21.61;46.07;100074.25;4964862;28;20530;-82
2022/08/24 02:28:07;;;;;;;6.53;3.80;;;;;;;21.57;45.99;100075.66;5001948;28;20100;-82
2022/08/24 02:30:34;;;;;;;6.30;4.20;;;;;;;21.53;46.47;100079.00;4985623;28;20129;-83
2022/08/24 02:33:01;;;;;;;4.63;3.75;;;;;;;21.49;46.52;100073.13;4954178;28;25186;-83
2022/08/24 02:35:29;;;;;;;5.63;4.05;;;;;;;21.57;46.00;100074.84;4968588;28;20104;-82
2022/08/24 02:37:57;;;;;;;5.70;4.30;;;;;;;21.65;45.46;100069.25;5001665;28;20122;-83
2022/08/24 02:40:26;;;;;;;8.02;4.43;;;;;;;21.62;45.05;100061.56;4970143;28;20042;-83
2022/08/24 02:42:54;;;;;;;7.40;4.05;;;;;;;21.50;45.77;100068.56;4981481;28;20054;-83
2022/08/24 02:45:21;;;;;;;4.63;3.80;;;;;;;21.52;46.10;100070.03;5000383;28;20453;-82
2022/08/24 02:47:48;;;;;;;8.20;3.63;;;;;;;21.50;46.19;100069.41;4993671;28;20046;-82
2022/08/24 02:50:17;;;;;;;9.70;4.88;;;;;;;21.44;46.30;100057.53;4967838;28;20114;-82
2022/08/24 02:52:44;;;;;;;6.55;3.88;;;;;;;21.43;46.43;100060.44;4967224;28;20091;-83
2022/08/24 02:55:14;;;;;;;10.40;4.78;;;;;;;21.37;46.23;100063.91;4971137;28;20054;-83
2022/08/24 02:57:46;;;;;;;6.05;4.18;;;;;;;21.35;47.93;100068.69;4936406;28;20494;-83
2022/08/24 03:00:16;;;;;;;7.20;4.53;;;;;;;21.31;48.31;100059.31;4966063;28;20466;-83
2022/08/24 03:02:50;;;;;;;8.10;5.85;;;;;;;21.25;50.17;100061.78;4966789;28;20490;-83
2022/08/24 03:05:18;;;;;;;6.90;4.53;;;;;;;21.29;50.22;100064.91;4969881;28;20457;-83
2022/08/24 03:07:45;;;;;;;6.70;4.80;;;;;;;21.31;49.85;100062.84;4970091;28;20410;-83
2022/08/24 03:10:13;;;;;;;8.38;4.78;;;;;;;21.19;50.42;100065.28;4998202;28;20085;-84
2022/08/24 03:12:41;;;;;;;6.10;5.00;;;;;;;21.16;50.49;100060.25;4954699;28;20041;-83
2022/08/24 03:15:28;;;;;;;6.63;4.82;;;;;;;20.94;50.80;100064.94;4953222;28;20463;-83
2022/08/24 03:17:59;;;;;;;6.72;5.13;;;;;;;21.10;50.54;100055.69;4952983;28;20049;-83
2022/08/24 03:20:28;;;;;;;15.13;4.50;;;;;;;21.03;50.11;100058.31;4985447;28;20494;-82
2022/08/24 03:22:55;;;;;;;6.38;4.65;;;;;;;21.10;49.69;100057.56;4973372;28;20056;-83
2022/08/24 03:25:25;;;;;;;9.45;4.00;;;;;;;21.15;48.20;100057.78;4986880;28;21140;-82
2022/08/24 03:27:53;;;;;;;4.93;3.85;;;;;;;21.18;47.10;100050.09;4969470;28;20506;-83
2022/08/24 03:30:21;;;;;;;4.05;3.55;;;;;;;21.34;45.88;100051.63;4986949;28;20045;-83
2022/08/24 03:32:48;;;;;;;6.82;3.35;;;;;;;21.33;45.68;100049.97;4999285;28;20042;-83
2022/08/24 03:35:16;;;;;;;5.60;3.15;;;;;;;21.30;45.71;100054.97;4959641;28;20054;-83
2022/08/24 03:37:43;;;;;;;6.43;3.33;;;;;;;21.30;45.84;100049.56;4965790;28;20051;-82
2022/08/24 03:40:13;;;;;;;5.03;3.90;;;;;;;21.20;46.56;100049.91;5004283;28;20058;-83
2022/08/24 03:42:52;;;;;;;5.43;3.45;;;;;;;21.25;46.30;100044.75;4933193;28;20738;-83
2022/08/24 03:45:20;;;;;;;5.60;3.72;;;;;;;21.21;46.23;100051.56;4922247;28;20047;-83
2022/08/24 03:47:47;;;;;;;7.90;4.50;;;;;;;21.27;45.75;100055.34;4974988;28;20054;-83
2022/08/24 03:50:14;;;;;;;7.43;3.72;;;;;;;21.25;46.04;100045.59;4959078;28;20054;-83
2022/08/24 03:52:41;;;;;;;8.27;4.53;;;;;;;21.28;45.57;100051.63;4975887;28;20398;-86
2022/08/24 03:55:09;;;;;;;5.80;3.97;;;;;;;21.20;45.49;100056.16;4967412;28;21002;-87
2022/08/24 03:57:36;;;;;;;5.78;4.32;;;;;;;21.23;45.59;100044.13;4981213;28;20061;-87
2022/08/24 04:00:06;;;;;;;5.30;3.83;;;;;;;21.29;45.54;100047.88;4999377;28;20081;-88
2022/08/24 04:02:40;;;;;;;5.10;3.60;;;;;;;21.15;46.24;100053.22;4979783;28;20062;-87
2022/08/24 04:05:11;;;;;;;6.07;3.53;;;;;;;21.07;46.31;100055.25;4978277;28;20590;-88
2022/08/24 04:07:39;;;;;;;9.00;3.95;;;;;;;20.98;47.01;100057.25;4964011;28;20054;-88
2022/08/24 04:10:07;;;;;;;6.32;4.00;;;;;;;20.98;46.74;100068.06;4951233;28;20680;-87
2022/08/24 04:12:34;;;;;;;3.67;3.25;;;;;;;20.94;46.87;100061.38;4984136;28;20109;-88
2022/08/24 04:15:04;;;;;;;4.90;3.65;;;;;;;20.87;47.09;100068.63;4965817;28;20645;-89
2022/08/24 04:17:31;;;;;;;6.32;3.42;;;;;;;20.91;46.91;100065.31;5010754;28;20059;-89
2022/08/24 04:20:01;;;;;;;4.43;3.20;;;;;;;20.75;47.79;100073.72;4968355;28;20064;-89
2022/08/24 04:22:33;;;;;;;8.00;4.18;;;;;;;20.85;47.17;100070.69;4996703;28;20042;-87
2022/08/24 04:25:03;;;;;;;8.68;4.93;;;;;;;20.88;47.18;100075.66;4948927;28;20054;-89
2022/08/24 04:27:37;;;;;;;7.18;3.90;;;;;;;20.82;47.47;100074.59;4980154;28;20050;-89
2022/08/24 04:30:07;;;;;;;6.28;4.00;;;;;;;20.86;46.91;100075.03;4984001;28;20046;-88
2022/08/24 04:32:54;;;;;;;4.70;3.60;;;;;;;20.88;46.93;100075.66;4985033;28;20039;-89
2022/08/24 04:35:23;;;;;;;6.97;4.30;;;;;;;20.80;47.73;100079.34;4975837;28;20054;-89
2022/08/24 04:37:50;;;;;;;10.32;4.32;;;;;;;20.76;47.75;100080.78;4962008;28;20042;-88
2022/08/24 04:40:18;;;;;;;4.22;3.80;;;;;;;20.65;48.62;100087.53;5000227;28;20057;-89
2022/08/24 04:42:48;;;;;;;5.03;3.25;;;;;;;20.71;48.10;100089.47;4984528;28;20057;-88
2022/08/24 04:45:15;;;;;;;9.45;3.75;;;;;;;20.67;48.33;100087.34;4963629;28;20494;-87
2022/08/24 04:47:43;;;;;;;6.53;3.63;;;;;;;20.66;48.38;100091.06;4998518;28;20108;-88
2022/08/24 04:50:12;;;;;;;8.15;3.55;;;;;;;20.65;48.78;100089.41;4967676;28;20469;-89
2022/08/24 04:52:40;;;;;;;5.63;4.05;;;;;;;20.68;48.39;100092.53;4967549;28;20038;-89
2022/08/24 04:55:11;;;;;;;6.78;3.72;;;;;;;20.76;48.32;100091.56;4981006;28;20049;-89
2022/08/24 04:57:38;;;;;;;8.63;4.05;;;;;;;20.70;48.96;100092.34;4965965;28;20054;-88
2022/08/24 05:00:09;;;;;;;12.60;3.92;;;;;;;20.72;48.89;100096.53;4999465;28;20046;-89
2022/08/24 05:02:39;;;;;;;7.47;4.18;;;;;;;20.76;48.67;100102.34;4998750;28;20049;-90
2022/08/24 05:05:12;;;;;;;9.20;4.55;;;;;;;20.73;48.60;100108.16;4981580;28;20045;-89
2022/08/24 05:07:38;;;;;;;5.68;4.15;;;;;;;20.73;48.82;100108.16;4965531;28;20153;-86
2022/08/24 05:10:06;;;;;;;6.70;4.32;;;;;;;20.77;48.61;100107.56;5000612;28;20104;-87
2022/08/24 05:12:34;;;;;;;7.47;4.75;;;;;;;20.77;48.56;100104.88;4978283;28;20050;-87
2022/08/24 05:15:09;;;;;;;5.30;4.57;;;;;;;20.84;48.27;100107.63;4961820;28;20058;-86
2022/08/24 05:17:40;;;;;;;8.07;4.82;;;;;;;20.81;48.56;100103.47;4996048;28;20134;-88
2022/08/24 05:20:10;;;;;;;10.57;5.05;;;;;;;20.94;48.29;100109.97;4961506;28;20765;-86
2022/08/24 05:22:37;;;;;;;6.22;4.60;;;;;;;20.99;48.04;100102.16;4999025;28;20046;-88
2022/08/24 05:25:05;;;;;;;8.98;5.10;;;;;;;21.00;48.37;100106.50;4963053;28;20046;-87
2022/08/24 05:27:34;;;;;;;5.38;4.53;;;;;;;21.11;48.05;100097.00;4966816;28;20455;-87
2022/08/24 05:30:03;;;;;;;8.18;5.05;;;;;;;21.08;48.04;100103.63;4981126;28;20058;-87
2022/08/24 05:32:29;;;;;;;6.00;4.30;;;;;;;21.12;48.27;100094.13;4965544;28;20042;-87
2022/08/24 05:34:59;;;;;;;5.30;4.45;;;;;;;21.12;48.49;100101.41;4983163;28;20126;-88
2022/08/24 05:37:26;;;;;;;7.57;4.20;;;;;;;21.24;48.34;100089.84;4982002;28;20093;-87
2022/08/24 05:40:13;;;;;;;7.30;4.85;;;;;;;21.21;48.28;100092.09;4960348;28;20509;-86
2022/08/24 05:42:42;;;;;;;7.40;4.22;;;;;;;21.32;48.31;100099.66;4997792;28;20137;-86
2022/08/24 05:45:10;;;;;;;6.35;3.90;;;;;;;21.39;48.35;100102.41;4967443;28;20081;-86
2022/08/24 05:47:38;;;;;;;5.50;4.10;;;;;;;21.35;48.43;100099.25;4946596;28;20498;-86
2022/08/24 05:50:24;;;;;;;5.55;3.75;;;;;;;;;;4965738;28;20039;-86
2022/08/24 05:52:50;;;;;;;5.80;3.72;;;;;;;21.54;48.20;100105.78;4965539;28;20054;-87
2022/08/24 05:55:19;;;;;;;4.30;3.90;;;;;;;21.52;48.23;100110.56;4967838;28;20050;-87
2022/08/24 05:57:46;;;;;;;7.00;4.50;;;;;;;21.74;47.65;100107.75;4983466;28;20050;-87
2022/08/24 06:00:18;;;;;;;;;;;;;;;21.30;49.26;100099.00;4980390;28;20042;-86
2022/08/24 06:02:51;;;;;;;7.18;4.15;;;;;;;21.74;47.83;100110.47;4950436;28;19926;-86
2022/08/24 06:05:19;;;;;;;5.93;3.97;;;;;;;21.84;47.81;100110.91;4959000;28;20057;-86
2022/08/24 06:07:46;;;;;;;4.70;3.95;;;;;;;21.93;47.91;100115.13;4981840;28;20603;-88
2022/08/24 06:10:13;;;;;;;8.07;3.90;;;;;;;21.86;47.95;100120.50;4968909;28;20084;-87
2022/08/24 06:13:00;;;;;;;8.30;4.32;;;;;;;21.93;47.83;100112.41;4975448;28;20044;-86
2022/08/24 06:15:27;;;;;;;4.05;3.67;;;;;;;21.89;48.04;100116.56;4966769;28;20047;-87
2022/08/24 06:17:53;;;;;;;7.55;4.35;;;;;;;21.96;47.90;100117.41;4998095;28;20050;-87
2022/08/24 06:20:21;;;;;;;7.05;3.80;;;;;;;21.93;47.97;100115.13;4982690;28;20105;-86
2022/08/24 06:22:49;;;;;;;6.38;3.75;;;;;;;21.95;47.56;100112.19;5009815;28;20138;-87
2022/08/24 06:28:02;;;;;;;5.93;3.72;;;;;;;22.02;47.57;100105.75;4968740;28;20042;-87
2022/08/24 06:30:29;;;;;;;4.93;3.88;;;;;;;22.09;47.80;100105.81;4947411;28;20043;-86
2022/08/24 06:33:16;;;;;;;4.10;3.70;;;;;;;22.25;47.67;100115.44;4964077;28;20062;-87
2022/08/24 06:35:46;;;;;;;6.47;3.88;;;;;;;22.28;47.84;100112.31;4976607;28;20046;-87
2022/08/24 06:38:13;;;;;;;5.55;4.00;;;;;;;22.25;47.74;100107.31;4985410;28;20122;-86
2022/08/24 06:40:43;;;;;;;8.40;4.55;;;;;;;22.28;47.92;100109.59;4997026;28;20050;-86
2022/08/24 06:43:12;;;;;;;7.40;4.43;;;;;;;22.32;48.03;100116.28;4970008;28;20062;-87
2022/08/24 06:45:46;;;;;;;7.35;3.70;;;;;;;22.32;48.11;100113.56;5001571;28;20045;-86
2022/08/24 06:48:16;;;;;;;6.80;4.50;;;;;;;22.35;48.36;100112.31;4984097;28;20078;-87
2022/08/24 06:50:44;;;;;;;7.00;3.80;;;;;;;22.42;48.58;100115.88;4984212;28;20054;-86
2022/08/24 06:53:13;;;;;;;10.38;4.22;;;;;;;22.54;48.28;100122.31;4954303;28;20053;-86
2022/08/24 06:55:51;;;;;;;5.32;4.47;;;;;;;22.61;48.26;100122.34;4982184;28;20085;-87
2022/08/24 06:58:20;;;;;;;6.00;4.10;;;;;;;22.68;48.18;100120.47;4985496;28;20848;-87
2022/08/24 07:00:48;;;;;;;5.55;4.22;;;;;;;22.75;48.26;100124.84;4999775;28;20442;-86
2022/08/24 07:03:19;;;;;;;7.60;4.60;;;;;;;22.72;48.19;100125.28;4965501;28;20038;-87
2022/08/24 07:05:55;;;;;;;7.72;4.07;;;;;;;22.71;48.34;100131.72;4953387;28;20364;-86
2022/08/24 07:08:42;;;;;;;7.30;4.30;;;;;;;22.80;48.24;100134.22;4952870;28;20049;-87
2022/08/24 07:11:13;;;;;;;6.53;4.15;;;;;;;22.85;48.42;100132.56;4967992;28;20046;-87
2022/08/24 07:13:41;;;;;;;6.22;4.35;;;;;;;22.90;48.28;100140.06;4967754;28;20050;-86
2022/08/24 07:16:11;;;;;;;5.28;3.65;;;;;;;22.91;48.54;100142.53;4969660;28;20139;-86
2022/08/24 07:18:38;;;;;;;7.15;4.13;;;;;;;22.96;48.42;100145.44;4967862;28;20070;-87
2022/08/24 07:21:07;;;;;;;6.57;3.63;;;;;;;23.01;48.33;100139.44;4984761;28;20042;-86
2022/08/24 07:23:39;;;;;;;11.43;3.83;;;;;;;23.06;48.39;100145.06;4996535;28;21620;-86
2022/08/24 07:26:18;;;;;;;4.95;3.95;;;;;;;23.07;48.89;100138.59;4967109;28;20126;-86
2022/08/24 07:29:04;;;;;;;7.22;4.15;;;;;;;23.15;48.97;100134.84;4918835;28;20389;-86
2022/08/24 07:31:38;;;;;;;4.80;4.20;;;;;;;23.21;48.70;100138.59;4984488;28;20050;-86
2022/08/24 07:34:14;;;;;;;6.25;3.90;;;;;;;23.25;48.73;100137.13;4968466;28;20139;-86
2022/08/24 07:36:42;;;;;;;4.25;3.63;;;;;;;23.28;48.66;100139.41;4945292;28;20049;-87
2022/08/24 07:39:11;;;;;;;5.90;4.00;;;;;;;23.31;48.39;100134.41;5000287;28;20065;-86
2022/08/24 07:41:41;;;;;;;3.88;3.28;;;;;;;23.35;48.50;100137.50;4984989;28;20047;-87
2022/08/24 07:44:29;;;;;;;4.47;4.03;;;;;;;23.38;48.35;100137.94;4923731;28;20703;-86
2022/08/24 07:46:56;;;;;;;7.47;3.80;;;;;;;23.42;48.33;100138.34;4966346;28;20105;-87
2022/08/24 07:49:23;;;;;;;4.85;3.63;;;;;;;23.46;48.16;100138.72;4966254;28;20042;-86
2022/08/24 07:52:04;;;;;;;6.90;3.40;;;;;;;23.51;48.20;100144.34;4953531;28;20062;-86
2022/08/24 07:54:31;;;;;;;6.70;4.05;;;;;;;23.55;48.26;100146.41;4969487;28;20129;-85
2022/08/24 07:57:00;;;;;;;7.35;4.20;;;;;;;23.60;48.24;100143.06;4967878;28;20042;-86
2022/08/24 07:59:27;;;;;;;4.47;3.45;;;;;;;23.65;48.33;100134.31;4934424;28;20046;-87
2022/08/24 08:01:55;;;;;;;5.85;3.90;;;;;;;23.67;48.31;100145.78;4981431;28;20097;-86
2022/08/24 08:04:23;;;;;;;6.43;4.10;;;;;;;23.71;48.24;100141.56;4999736;28;20474;-87
2022/08/24 08:06:51;;;;;;;5.60;3.42;;;;;;;23.72;48.19;100144.13;4992933;28;20038;-87
2022/08/24 08:09:20;;;;;;;5.45;3.78;;;;;;;23.73;48.30;100145.75;4983275;28;20125;-85
2022/08/24 08:11:48;;;;;;;6.07;4.03;;;;;;;23.73;48.41;100148.47;4983167;28;20051;-86
2022/08/24 08:14:15;;;;;;;7.32;4.30;;;;;;;23.71;48.52;100142.44;4983308;28;20085;-86
2022/08/24 08:16:41;;;;;;;5.90;4.00;;;;;;;23.77;48.29;100144.31;4965198;28;20077;-87
2022/08/24 08:19:08;;;;;;;7.40;3.95;;;;;;;23.78;48.71;100147.84;4948299;28;20053;-85
2022/08/24 08:24:28;;;;;;;6.78;4.40;;;;;;;23.86;48.53;100144.06;4967452;28;20525;-86
2022/08/24 08:26:56;;;;;;;4.97;3.88;;;;;;;23.85;48.71;100143.22;4950580;28;20042;-86
2022/08/24 08:29:26;;;;;;;5.43;4.50;;;;;;;23.87;48.43;100145.72;4999260;28;20513;-86
2022/08/24 08:31:54;;;;;;;7.03;4.70;;;;;;;23.94;48.46;100143.81;4986294;28;20670;-86
2022/08/24 08:34:21;;;;;;;4.38;3.88;;;;;;;23.94;48.39;100144.66;4998595;28;20149;-86
2022/08/24 08:36:48;;;;;;;6.25;3.85;;;;;;;24.01;48.46;100139.19;4949462;28;20046;-86
2022/08/24 08:39:18;;;;;;;6.65;3.92;;;;;;;24.07;48.15;100137.47;4985290;28;20039;-87
2022/08/24 08:42:15;;;;;;;8.70;4.22;;;;;;;24.03;48.35;100129.78;4951883;28;20100;-85
2022/08/24 08:44:49;;;;;;;6.30;4.15;;;;;;;24.14;48.45;100127.44;4950913;28;20078;-86
2022/08/24 08:47:43;;;;;;;8.52;3.92;;;;;;;24.18;48.26;100121.34;4977329;28;20042;-87
2022/08/24 08:50:18;;;;;;;4.88;3.97;;;;;;;24.23;47.86;100123.41;4960620;28;20486;-87
2022/08/24 08:52:54;;;;;;;;;;;;;;;24.13;48.02;100126.59;4982579;28;20046;-87
2022/08/24 08:55:39;;;;;;;3.97;3.47;;;;;;;24.21;47.21;100129.06;4972580;28;19922;-86
2022/08/24 08:58:49;;;;;;;3.03;2.75;;;;;;;24.23;47.50;100123.41;4965653;28;20145;-86
2022/08/24 09:01:59;;;;;;;4.07;3.58;;;;;;;24.32;47.07;100116.66;4954424;28;20397;-85
2022/08/24 09:05:01;;;;;;;3.45;3.15;;;;;;;24.35;46.84;100118.97;4920714;28;20050;-87
2022/08/24 09:07:56;;;;;;;4.45;3.05;;;;;;;24.45;46.87;100115.78;4997849;28;20046;-86
2022/08/24 09:11:08;;;;;;;5.05;3.85;;;;;;;24.49;46.63;100127.88;4950829;28;20054;-86
2022/08/24 09:14:02;;;;;;;5.57;4.00;;;;;;;24.51;46.00;100116.78;4895709;29;20058;-86
2022/08/24 09:17:02;;;;;;;7.15;3.55;;;;;;;24.54;46.22;100113.63;4924846;28;20142;-85
2022/08/24 09:20:07;;;;;;;6.70;4.30;;;;;;;24.55;45.68;100116.13;4894550;28;20047;-85
2022/08/24 09:22:42;;;;;;;7.35;3.80;;;;;;;24.65;45.20;100108.34;4933413;28;20054;-86
2022/08/24 09:25:23;;;;;;;9.50;4.28;;;;;;;24.66;45.03;100106.44;4931234;28;20119;-85
2022/08/24 09:28:18;;;;;;;7.10;3.90;;;;;;;24.73;45.29;100109.09;4943935;28;20714;-86
2022/08/24 09:31:29;;;;;;;6.22;3.63;;;;;;;24.66;45.00;100107.25;4993338;28;20406;-86
2022/08/24 09:34:21;;;;;;;6.00;3.65;;;;;;;24.82;45.46;100105.88;4921686;28;20458;-85
2022/08/24 09:36:52;;;;;;;7.05;3.65;;;;;;;24.86;45.59;100100.84;4959755;28;20666;-86
2022/08/24 09:39:43;;;;;;;8.40;3.63;;;;;;;24.87;44.47;100099.78;4998568;28;20049;-85
2022/08/24 09:42:25;;;;;;;5.80;3.38;;;;;;;24.99;43.65;100098.00;4943377;28;20490;-86
2022/08/24 09:45:14;;;;;;;6.18;3.05;;;;;;;24.94;42.98;100097.00;5013951;28;20038;-85
2022/08/24 09:48:03;;;;;;;5.85;3.95;;;;;;;25.02;43.14;100097.53;4931947;28;20038;-86
2022/08/24 09:50:51;;;;;;;7.32;3.95;;;;;;;25.09;42.41;100092.88;4993345;28;20057;-85
2022/08/24 09:53:52;;;;;;;9.48;3.65;;;;;;;25.06;41.81;100090.63;4981317;28;20426;-85
2022/08/24 09:56:36;;;;;;;5.10;3.53;;;;;;;25.08;42.59;100093.91;4962917;28;20574;-86
2022/08/24 09:59:09;;;;;;;3.85;3.00;;;;;;;25.20;41.92;100095.94;4994471;28;20046;-85
2022/08/24 10:02:16;;;;;;;7.55;3.83;;;;;;;25.18;42.25;100090.72;4968435;28;20065;-85
2022/08/24 10:05:02;;;;;;;5.15;3.30;;;;;;;25.23;42.15;100093.59;4921500;28;20042;-85
2022/08/24 10:07:39;;;;;;;8.15;3.45;;;;;;;25.36;40.74;100092.59;4944218;28;20589;-86
2022/08/24 10:10:31;;;;;;;9.48;4.18;;;;;;;25.34;39.75;100092.84;4949597;28;20050;-85
2022/08/24 10:13:02;;;;;;;5.82;3.88;;;;;;;25.42;40.43;100091.72;4970350;28;20067;-85
2022/08/24 10:15:44;;;;;;;6.53;3.75;;;;;;;25.38;40.48;100097.81;4969196;28;20520;-85
2022/08/24 10:18:30;;;;;;;3.95;3.55;;;;;;;25.43;40.59;100081.66;4967638;28;20512;-85
2022/08/24 10:21:12;;;;;;;5.97;3.35;;;;;;;25.43;41.25;100087.09;4950405;28;20081;-86
2022/08/24 10:24:02;;;;;;;7.32;3.63;;;;;;;25.42;40.37;100077.31;4980559;28;20050;-86
2022/08/24 10:26:47;;;;;;;7.20;3.30;;;;;;;25.54;39.82;100072.72;4955865;28;20046;-86
2022/08/24 10:29:31;;;;;;;7.70;3.60;;;;;;;25.55;39.65;100079.84;4976473;28;20050;-86
2022/08/24 10:32:10;;;;;;;3.95;3.22;;;;;;;25.60;39.39;100069.13;4964112;28;20447;-84
2022/08/24 10:35:12;;;;;;;6.03;3.45;;;;;;;25.57;38.40;100072.31;4983233;28;20058;-85
2022/08/24 10:40:53;;;;;;;5.53;3.25;;;;;;;25.70;38.05;100077.56;4992771;28;20050;-85
2022/08/24 10:43:33;;;;;;;5.13;3.70;;;;;;;25.72;38.11;100063.72;4985431;28;20043;-88
2022/08/24 10:46:38;;;;;;;6.18;3.20;;;;;;;25.71;37.21;100065.63;5003128;28;20410;-87
2022/08/24 10:49:31;;;;;;;9.85;3.55;;;;;;;25.78;37.65;100068.25;4924285;28;20050;-89
2022/08/24 10:52:11;;;;;;;4.72;3.22;;;;;;;25.84;38.23;100066.50;4964064;28;20042;-86
2022/08/24 10:54:37;;;;;;;5.25;2.85;;;;;;;25.89;37.91;100056.59;5028789;28;20043;-88
2022/08/24 10:57:12;;;;;;;5.03;3.50;;;;;;;25.97;36.96;100060.91;5000835;28;20097;-84
2022/08/24 11:00:11;;;;;;;7.88;3.10;;;;;;;25.91;35.75;100053.66;4964986;28;20505;-84
2022/08/24 11:02:48;;;;;;;11.50;3.17;;;;;;;25.96;36.32;100048.38;4908972;28;20046;-84
2022/08/24 11:05:28;;;;;;;7.13;3.40;;;;;;;25.99;35.76;100051.44;4999977;28;20104;-83
2022/08/24 11:07:59;;;;;;;4.07;3.10;;;;;;;26.10;35.38;100051.69;4953287;28;20042;-83
2022/08/24 11:10:36;;;;;;;5.70;3.47;;;;;;;26.11;35.17;100051.50;4985548;28;20042;-83
2022/08/24 11:13:24;;;;;;;4.72;3.35;;;;;;;26.15;34.50;100052.66;4985034;28;20057;-83
2022/08/24 11:16:00;;;;;;;6.47;3.10;;;;;;;26.17;34.61;100045.09;5000128;28;20039;-83
2022/08/24 11:18:46;;;;;;;4.03;2.97;;;;;;;26.14;35.41;100047.47;4984711;28;20042;-84
2022/08/24 11:21:32;;;;;;;5.88;3.10;;;;;;;26.16;35.55;100039.91;4942880;28;20050;-84
2022/08/24 11:24:10;;;;;;;5.25;2.80;;;;;;;26.17;35.43;100036.09;4978379;28;20050;-84
2022/08/24 11:26:57;;;;;;;6.47;3.35;;;;;;;26.18;35.40;100045.91;4966935;28;20054;-83
2022/08/24 11:29:30;;;;;;;5.38;3.58;;;;;;;26.26;35.53;100036.63;4936206;28;20104;-83
2022/08/24 11:31:57;;;;;;;8.05;3.38;;;;;;;26.37;35.54;100035.78;4981216;28;20065;-83
2022/08/24 11:34:33;;;;;;;7.78;3.55;;;;;;;26.41;33.46;100029.66;4968049;28;20547;-83
2022/08/24 11:37:01;;;;;;;5.80;3.72;;;;;;;26.54;33.99;100033.25;4964954;28;20043;-83
2022/08/24 11:39:34;;;;;;;10.00;4.55;;;;;;;26.58;34.01;100051.59;5000435;28;20137;-82
2022/08/24 11:42:32;;;;;;;6.10;3.47;;;;;;;26.54;34.31;100027.81;4950893;28;20706;-83
2022/08/24 11:45:09;;;;;;;6.25;3.90;;;;;;;26.61;33.74;100025.78;4930819;28;20050;-83
2022/08/24 11:47:36;;;;;;;6.32;3.60;;;;;;;26.62;34.81;100014.66;4994462;28;20038;-84
2022/08/24 11:50:13;;;;;;;5.07;3.70;;;;;;;26.67;34.02;100029.47;4965718;28;20042;-83
2022/08/24 11:52:52;;;;;;;7.97;4.22;;;;;;;26.67;34.16;100013.94;4967025;28;20055;-82
2022/08/24 11:55:29;;;;;;;9.77;4.20;;;;;;;26.79;33.91;100035.72;4962453;28;20120;-82
2022/08/24 11:58:48;;;;;;;6.03;4.68;;;;;;;26.74;33.99;100017.38;4991472;28;20121;-83
2022/08/24 12:01:26;;;;;;;5.28;4.35;;;;;;;26.80;33.66;100021.88;4920635;28;20050;-85
2022/08/24 12:04:12;;;;;;;8.23;3.97;;;;;;;26.79;34.77;100022.94;4995493;28;20052;-83
2022/08/24 12:07:17;;;;;;;7.70;3.95;;;;;;;26.74;34.62;100006.47;4951802;28;20042;-83
2022/08/24 12:10:06;;;;;;;6.13;4.32;;;;;;;26.79;35.05;100011.19;4961924;28;20050;-83